Time;durP1;ratioP1;P1;durP2;ratioP2;P2;SDS_P1;SDS_P2;PMS_P1;PMS_P2;Temp;Humidity;BMP_temperature;BMP_pressure;BME280_temperature;BME280_humidity;BME280_pressure;Samples;Min_cycle;Max_cycle;Signal;HPM_P1;HPM_P2
2021/10/26 00:00:11;;;;;;;9.67;7.10;;;;;;;6.98;100.00;98623.09;5073119;28;20213;-65
2021/10/26 00:02:38;;;;;;;10.27;7.70;;;;;;;6.99;100.00;98611.66;5073046;28;20211;-65
2021/10/26 00:05:07;;;;;;;10.53;7.80;;;;;;;6.98;100.00;98626.56;5072773;28;20224;-65
2021/10/26 00:07:34;;;;;;;11.53;8.13;;;;;;;7.01;100.00;98613.28;5068727;28;20211;-66
2021/10/26 00:10:01;;;;;;;11.63;8.27;;;;;;;7.05;100.00;98620.09;5073007;28;20216;-65
2021/10/26 00:12:29;;;;;;;9.80;7.97;;;;;;;7.06;100.00;98620.94;5072932;28;20227;-66
2021/10/26 00:14:55;;;;;;;10.73;8.27;;;;;;;7.09;100.00;98621.63;5072472;28;20243;-66
2021/10/26 00:17:22;;;;;;;11.03;7.70;;;;;;;7.15;100.00;98621.34;5072726;28;20227;-66
2021/10/26 00:19:48;;;;;;;11.27;7.60;;;;;;;7.25;100.00;98622.63;5072769;28;20593;-66
2021/10/26 00:22:15;;;;;;;11.60;8.17;;;;;;;7.41;100.00;98623.59;5072780;28;20211;-66
2021/10/26 00:24:41;;;;;;;14.20;8.97;;;;;;;7.58;100.00;98621.81;5072683;28;20220;-66
2021/10/26 00:27:08;;;;;;;11.43;7.90;;;;;;;7.74;100.00;98614.88;5072813;28;20212;-65
2021/10/26 00:29:36;;;;;;;11.23;8.90;;;;;;;7.86;100.00;98616.91;5072896;28;20214;-65
2021/10/26 00:32:02;;;;;;;8.67;7.43;;;;;;;7.97;100.00;98618.97;5072359;28;20215;-65
2021/10/26 00:34:29;;;;;;;11.37;8.10;;;;;;;8.09;100.00;98623.63;5071320;28;20220;-65
2021/10/26 00:36:55;;;;;;;12.00;8.23;;;;;;;8.14;100.00;98629.50;5072458;28;20238;-65
2021/10/26 00:39:22;;;;;;;10.60;7.57;;;;;;;8.23;100.00;98634.31;5072483;28;20214;-65
2021/10/26 00:41:49;;;;;;;10.83;7.77;;;;;;;8.26;100.00;98631.53;5072217;28;20858;-65
2021/10/26 00:44:17;;;;;;;9.50;7.00;;;;;;;8.33;100.00;98630.28;5072185;28;20222;-65
2021/10/26 00:46:44;;;;;;;10.23;7.00;;;;;;;8.38;100.00;98641.44;5072540;28;20215;-65
2021/10/26 00:49:11;;;;;;;9.87;7.60;;;;;;;8.43;100.00;98634.09;5062150;28;20218;-65
2021/10/26 00:51:39;;;;;;;8.57;7.37;;;;;;;8.49;100.00;98639.06;5072444;28;20267;-65
2021/10/26 00:54:06;;;;;;;11.67;7.40;;;;;;;8.54;100.00;98637.03;5072116;28;20228;-65
2021/10/26 00:56:33;;;;;;;10.30;7.20;;;;;;;8.56;100.00;98640.47;5072008;28;20246;-65
2021/10/26 00:59:01;;;;;;;10.20;7.33;;;;;;;8.60;100.00;98637.56;5061353;28;20210;-65
2021/10/26 01:01:28;;;;;;;7.97;7.07;;;;;;;8.65;100.00;98629.41;5076085;28;20218;-65
2021/10/26 01:03:56;;;;;;;9.40;7.27;;;;;;;8.69;100.00;98634.44;5076145;28;20219;-66
2021/10/26 01:06:23;;;;;;;9.97;7.47;;;;;;;8.70;100.00;98640.56;5076100;28;20568;-65
2021/10/26 01:08:50;;;;;;;9.30;6.90;;;;;;;8.72;100.00;98636.91;5065566;28;20211;-65
2021/10/26 01:11:17;;;;;;;8.83;7.23;;;;;;;8.73;100.00;98643.88;5075858;28;20214;-65
2021/10/26 01:13:45;;;;;;;10.97;8.10;;;;;;;8.75;100.00;98642.00;5075906;28;20212;-65
2021/10/26 01:16:11;;;;;;;10.87;7.43;;;;;;;8.80;100.00;98649.66;5075551;28;20250;-65
2021/10/26 01:18:38;;;;;;;11.73;8.17;;;;;;;8.82;100.00;98647.81;5075713;28;20215;-65
2021/10/26 01:21:06;;;;;;;8.87;6.93;;;;;;;8.87;100.00;98651.06;5075742;28;20226;-65
2021/10/26 01:23:33;;;;;;;8.20;6.70;;;;;;;8.93;100.00;98645.44;5075724;28;20218;-65
2021/10/26 01:26:00;;;;;;;10.87;7.60;;;;;;;9.00;100.00;98641.53;5073782;28;20687;-65
2021/10/26 01:28:27;;;;;;;11.37;8.03;;;;;;;8.93;100.00;98645.44;5075586;28;20589;-65
2021/10/26 01:30:55;;;;;;;10.30;7.67;;;;;;;8.75;100.00;98651.72;5075274;28;20207;-65
2021/10/26 01:33:21;;;;;;;10.70;7.53;;;;;;;8.66;100.00;98657.47;5075530;28;20220;-65
2021/10/26 01:35:48;;;;;;;9.20;7.93;;;;;;;8.65;100.00;98651.34;5075094;28;20238;-65
2021/10/26 01:38:15;;;;;;;9.67;7.03;;;;;;;8.67;100.00;98648.63;5075140;28;20226;-65
2021/10/26 01:40:42;;;;;;;10.90;7.60;;;;;;;8.69;100.00;98652.88;5075425;28;20221;-65
2021/10/26 01:43:09;;;;;;;9.20;6.97;;;;;;;8.78;100.00;98662.06;5075411;28;20215;-65
2021/10/26 01:45:35;;;;;;;8.80;6.77;;;;;;;8.81;100.00;98651.38;5075492;28;20224;-65
2021/10/26 01:48:01;;;;;;;9.80;7.53;;;;;;;8.84;100.00;98656.47;5075170;28;20211;-65
2021/10/26 01:50:28;;;;;;;9.20;6.87;;;;;;;8.86;100.00;98657.22;5073542;28;20217;-65
2021/10/26 01:52:55;;;;;;;9.03;7.50;;;;;;;8.84;100.00;98659.13;5075351;28;20224;-65
2021/10/26 01:55:24;;;;;;;9.87;7.33;;;;;;;8.81;100.00;98656.66;5075148;28;20304;-65
2021/10/26 01:57:50;;;;;;;10.30;7.57;;;;;;;8.81;100.00;98654.84;5075129;28;20213;-65
2021/10/26 02:00:18;;;;;;;10.20;7.53;;;;;;;8.76;100.00;98653.41;5075223;28;20210;-65
2021/10/26 02:02:46;;;;;;;8.73;7.07;;;;;;;8.76;100.00;98656.88;5075050;28;20218;-65
2021/10/26 02:05:13;;;;;;;8.57;7.30;;;;;;;8.77;100.00;98653.34;5075033;28;20217;-65
2021/10/26 02:07:40;;;;;;;9.90;6.97;;;;;;;8.75;100.00;98657.00;5074909;28;20214;-65
2021/10/26 02:10:08;;;;;;;10.03;7.00;;;;;;;8.69;100.00;98663.41;5074792;28;20225;-65
2021/10/26 02:12:36;;;;;;;8.47;6.77;;;;;;;8.67;100.00;98664.44;5074527;28;20219;-65
2021/10/26 02:15:04;;;;;;;11.47;7.73;;;;;;;8.69;100.00;98667.84;5074664;28;20236;-65
2021/10/26 02:17:30;;;;;;;9.17;7.90;;;;;;;8.65;100.00;98671.56;5073130;28;20249;-65
2021/10/26 02:19:57;;;;;;;9.13;7.63;;;;;;;8.66;100.00;98673.28;5074698;28;20213;-65
2021/10/26 02:22:23;;;;;;;8.50;7.60;;;;;;;8.61;100.00;98675.28;5074745;28;20580;-65
2021/10/26 02:24:50;;;;;;;9.97;7.73;;;;;;;8.62;100.00;98677.03;5074614;28;20215;-65
2021/10/26 02:27:16;;;;;;;13.33;8.00;;;;;;;8.66;100.00;98673.28;5074610;28;20578;-65
2021/10/26 02:29:45;;;;;;;10.67;8.27;;;;;;;8.65;100.00;98679.47;5074590;28;20223;-65
2021/10/26 02:32:12;;;;;;;9.37;7.67;;;;;;;8.65;100.00;98671.56;5074500;28;20606;-66
2021/10/26 02:34:38;;;;;;;9.97;8.47;;;;;;;8.59;100.00;98672.75;5071294;28;20219;-65
2021/10/26 02:37:06;;;;;;;11.10;8.40;;;;;;;8.55;100.00;98670.34;5074405;28;20242;-64
2021/10/26 02:39:32;;;;;;;10.20;8.23;;;;;;;8.50;100.00;98667.97;5074372;28;20217;-65
2021/10/26 02:41:59;;;;;;;11.30;8.90;;;;;;;8.47;100.00;98672.53;5074203;28;20223;-65
2021/10/26 02:44:26;;;;;;;10.43;8.20;;;;;;;8.50;100.00;98670.59;5072609;28;20229;-65
2021/10/26 02:46:54;;;;;;;10.47;8.30;;;;;;;8.47;100.00;98664.63;5073770;28;20230;-65
2021/10/26 02:49:20;;;;;;;10.20;8.13;;;;;;;8.44;100.00;98672.72;5074086;28;20222;-65
2021/10/26 02:51:46;;;;;;;10.17;8.40;;;;;;;8.40;100.00;98677.25;5073987;28;20226;-65
2021/10/26 02:54:13;;;;;;;11.03;8.83;;;;;;;8.33;100.00;98680.31;5073954;28;20216;-65
2021/10/26 02:56:42;;;;;;;10.53;8.23;;;;;;;8.26;100.00;98682.41;5070819;28;20709;-65
2021/10/26 02:59:08;;;;;;;10.70;8.80;;;;;;;8.23;100.00;98679.06;5073802;28;20212;-65
2021/10/26 03:01:35;;;;;;;10.93;8.33;;;;;;;8.23;100.00;98673.81;5073615;28;20267;-65
2021/10/26 03:04:02;;;;;;;12.40;9.27;;;;;;;8.24;100.00;98675.50;5073818;28;20211;-65
2021/10/26 03:06:29;;;;;;;9.50;8.10;;;;;;;8.20;100.00;98671.34;5073638;28;20222;-65
2021/10/26 03:08:55;;;;;;;9.70;8.60;;;;;;;8.19;100.00;98672.22;5071813;28;20222;-65
2021/10/26 03:11:22;;;;;;;12.30;9.27;;;;;;;8.17;100.00;98674.09;5073687;28;20216;-65
2021/10/26 03:13:49;;;;;;;10.47;8.63;;;;;;;8.12;100.00;98671.69;5073566;28;20214;-65
2021/10/26 03:16:15;;;;;;;11.93;8.93;;;;;;;8.07;100.00;98678.09;5073514;28;20337;-65
2021/10/26 03:18:41;;;;;;;9.90;8.80;;;;;;;8.05;100.00;98679.97;5073510;28;20222;-65
2021/10/26 03:21:09;;;;;;;14.77;11.07;;;;;;;7.98;100.00;98679.44;5073254;28;20221;-65
2021/10/26 03:23:36;;;;;;;12.10;10.33;;;;;;;8.01;100.00;98683.69;5073228;28;20213;-65
2021/10/26 03:26:02;;;;;;;13.33;9.77;;;;;;;8.01;100.00;98688.94;5073462;28;20213;-65
2021/10/26 03:28:29;;;;;;;10.97;9.67;;;;;;;8.02;100.00;98685.41;5063133;28;20236;-65
2021/10/26 03:30:57;;;;;;;13.37;10.10;;;;;;;8.07;100.00;98691.25;5073425;28;20244;-65
2021/10/26 03:33:23;;;;;;;11.93;9.93;;;;;;;8.08;100.00;98691.19;5073071;28;20215;-65
2021/10/26 03:35:52;;;;;;;11.97;10.07;;;;;;;8.08;100.00;98691.19;5071230;28;20676;-65
2021/10/26 03:38:20;;;;;;;13.43;9.50;;;;;;;8.12;100.00;98691.88;5063018;28;20211;-65
2021/10/26 03:40:46;;;;;;;12.27;10.00;;;;;;;8.17;100.00;98689.88;5072969;28;20705;-65
2021/10/26 03:43:13;;;;;;;11.93;9.33;;;;;;;8.22;100.00;98687.91;5073310;28;20217;-65
2021/10/26 03:45:39;;;;;;;12.87;10.10;;;;;;;8.22;100.00;98693.19;5073117;28;20221;-65
2021/10/26 03:48:09;;;;;;;11.83;9.53;;;;;;;8.22;100.00;98694.03;5072818;28;20218;-65
2021/10/26 03:50:36;;;;;;;13.67;10.23;;;;;;;8.21;100.00;98691.47;5072875;28;20279;-65
2021/10/26 03:53:02;;;;;;;14.00;10.60;;;;;;;8.21;100.00;98702.00;5073094;28;20215;-65
2021/10/26 03:55:30;;;;;;;13.97;11.00;;;;;;;8.17;100.00;98700.41;5073015;28;20222;-65
2021/10/26 03:57:56;;;;;;;15.33;11.33;;;;;;;8.19;100.00;98706.44;5072875;28;20257;-65
2021/10/26 04:00:23;;;;;;;13.20;10.23;;;;;;;8.17;100.00;98703.03;5071147;28;20206;-65
2021/10/26 04:02:50;;;;;;;13.37;11.00;;;;;;;8.16;100.00;98706.63;5072820;28;20602;-65
2021/10/26 04:05:21;;;;;;;13.37;10.63;;;;;;;8.21;100.00;98707.28;5072702;28;20220;-65
2021/10/26 04:07:53;;;;;;;14.97;11.20;;;;;;;8.24;100.00;98710.59;5062410;28;20556;-65
2021/10/26 04:10:30;;;;;;;15.50;11.90;;;;;;;8.26;100.00;98705.25;5072670;28;20212;-65
2021/10/26 04:12:59;;;;;;;14.43;11.33;;;;;;;8.25;100.00;98704.41;5072884;28;20231;-65
2021/10/26 04:15:25;;;;;;;12.70;10.30;;;;;;;8.22;100.00;98714.25;5072491;28;20244;-66
2021/10/26 04:17:52;;;;;;;14.33;11.33;;;;;;;8.22;100.00;98719.50;5072537;28;20238;-66
2021/10/26 04:20:18;;;;;;;15.20;11.00;;;;;;;8.21;100.00;98717.81;5072568;28;20211;-65
2021/10/26 04:22:44;;;;;;;13.57;10.70;;;;;;;8.14;100.00;98721.66;5072898;28;20589;-65
2021/10/26 04:25:11;;;;;;;14.23;11.00;;;;;;;8.10;100.00;98715.69;5072897;28;20607;-65
2021/10/26 04:27:37;;;;;;;14.00;11.23;;;;;;;8.08;100.00;98717.53;5071096;28;20222;-65
2021/10/26 04:30:07;;;;;;;14.20;11.13;;;;;;;8.07;100.00;98720.22;5072620;28;20221;-65
2021/10/26 04:32:33;;;;;;;14.70;11.50;;;;;;;8.05;100.00;98711.56;5072436;28;20664;-65
2021/10/26 04:35:00;;;;;;;15.83;11.90;;;;;;;8.07;100.00;98714.97;5072734;28;20211;-65
2021/10/26 04:37:26;;;;;;;15.63;12.20;;;;;;;8.07;100.00;98714.97;5076744;28;20603;-65
2021/10/26 04:39:53;;;;;;;18.00;11.43;;;;;;;8.05;100.00;98714.19;5076568;28;20304;-65
2021/10/26 04:42:19;;;;;;;15.23;11.77;;;;;;;8.01;100.00;98718.75;5076521;28;20211;-65
2021/10/26 04:44:46;;;;;;;14.70;11.77;;;;;;;8.02;100.00;98717.00;5076367;28;20216;-65
2021/10/26 04:47:15;;;;;;;17.07;11.73;;;;;;;8.06;100.00;98729.91;5076112;28;20666;-65
2021/10/26 04:49:42;;;;;;;15.33;11.70;;;;;;;8.13;100.00;98722.56;5076466;28;20216;-65
2021/10/26 04:52:09;;;;;;;14.53;11.13;;;;;;;8.21;100.00;98728.34;5074526;28;20214;-65
2021/10/26 04:54:35;;;;;;;13.37;11.17;;;;;;;8.28;100.00;98738.50;5076223;28;20216;-65
2021/10/26 04:57:01;;;;;;;13.33;11.10;;;;;;;8.33;100.00;98725.09;5076024;28;20238;-66
2021/10/26 04:59:28;;;;;;;15.63;11.57;;;;;;;8.36;100.00;98736.31;5076465;28;20254;-65
2021/10/26 05:01:54;;;;;;;18.40;12.73;;;;;;;8.37;100.00;98737.16;5076264;28;20214;-65
2021/10/26 05:04:22;;;;;;;14.27;11.40;;;;;;;8.33;100.00;98733.00;5076217;28;20217;-66
2021/10/26 05:06:48;;;;;;;13.40;10.53;;;;;;;8.29;100.00;98734.06;5065996;28;20214;-65
2021/10/26 05:09:15;;;;;;;15.40;11.17;;;;;;;8.27;100.00;98738.56;5076088;28;20224;-66
2021/10/26 05:11:42;;;;;;;14.90;11.33;;;;;;;8.24;100.00;98739.56;5075780;28;20829;-65
2021/10/26 05:14:08;;;;;;;16.17;11.40;;;;;;;8.26;100.00;98742.13;5075768;28;20701;-65
2021/10/26 05:16:35;;;;;;;14.40;11.20;;;;;;;8.25;100.00;98735.13;5075455;28;20608;-65
2021/10/26 05:19:04;;;;;;;13.90;10.63;;;;;;;8.25;100.00;98737.75;5074294;28;20570;-65
2021/10/26 05:21:32;;;;;;;15.70;10.90;;;;;;;8.25;100.00;98728.09;5075789;28;20249;-65
2021/10/26 05:23:59;;;;;;;14.67;10.83;;;;;;;8.24;100.00;98730.81;5075418;28;20248;-65
2021/10/26 05:26:25;;;;;;;14.00;10.70;;;;;;;8.17;100.00;98737.28;5075658;28;20584;-65
2021/10/26 05:28:52;;;;;;;15.10;10.97;;;;;;;8.09;100.00;98734.19;5075638;28;20209;-65
2021/10/26 05:31:19;;;;;;;15.17;10.40;;;;;;;8.00;100.00;98740.75;5075766;28;20218;-65
2021/10/26 05:33:47;;;;;;;13.20;10.27;;;;;;;7.87;100.00;98741.41;5075496;28;20219;-65
2021/10/26 05:36:13;;;;;;;13.33;10.50;;;;;;;7.84;100.00;98744.22;5075644;28;20208;-65
2021/10/26 05:38:42;;;;;;;15.10;10.73;;;;;;;7.77;100.00;98738.38;5075549;28;20221;-65
2021/10/26 05:41:10;;;;;;;14.57;11.50;;;;;;;7.80;100.00;98743.50;5075556;28;20582;-65
2021/10/26 05:43:36;;;;;;;13.57;10.63;;;;;;;7.81;100.00;98741.72;5075207;28;20707;-65
2021/10/26 05:46:03;;;;;;;15.20;11.40;;;;;;;7.72;100.00;98734.28;5073235;28;20209;-64
2021/10/26 05:48:31;;;;;;;13.43;11.23;;;;;;;7.77;100.00;98745.44;5075067;28;20673;-65
2021/10/26 05:50:59;;;;;;;16.93;11.97;;;;;;;7.79;100.00;98743.59;5074977;28;20226;-65
2021/10/26 05:53:25;;;;;;;13.83;11.07;;;;;;;7.76;100.00;98741.09;5074969;28;20690;-65
2021/10/26 05:55:53;;;;;;;15.63;11.97;;;;;;;7.71;100.00;98745.75;5074954;28;20596;-65
2021/10/26 05:58:19;;;;;;;15.50;12.10;;;;;;;7.70;100.00;98754.53;5075214;28;20244;-65
2021/10/26 06:00:46;;;;;;;16.67;11.33;;;;;;;7.66;100.00;98751.19;5075029;28;20210;-65
2021/10/26 06:03:13;;;;;;;14.17;10.93;;;;;;;7.60;100.00;98761.19;5075051;28;20230;-65
2021/10/26 06:05:39;;;;;;;15.87;11.90;;;;;;;7.60;100.00;98755.91;5075069;28;20213;-65
2021/10/26 06:08:06;;;;;;;14.27;11.50;;;;;;;7.52;100.00;98748.38;5074733;28;20224;-65
2021/10/26 06:10:35;;;;;;;15.57;11.03;;;;;;;7.49;100.00;98758.19;5073135;28;20577;-65
2021/10/26 06:13:07;;;;;;;14.07;11.10;;;;;;;7.44;100.00;98765.44;5074505;28;20217;-65
2021/10/26 06:15:34;;;;;;;15.27;11.93;;;;;;;7.39;100.00;98764.78;5074841;28;20250;-65
2021/10/26 06:18:00;;;;;;;14.23;11.47;;;;;;;7.36;100.00;98781.56;5074390;28;20233;-65
2021/10/26 06:20:27;;;;;;;15.07;12.50;;;;;;;7.36;100.00;98783.38;5074714;28;20219;-65
2021/10/26 06:22:53;;;;;;;18.70;12.83;;;;;;;7.37;100.00;98779.81;5074687;28;20219;-65
2021/10/26 06:25:20;;;;;;;17.17;12.83;;;;;;;7.41;100.00;98787.47;5074363;28;20208;-65
2021/10/26 06:27:46;;;;;;;17.20;12.93;;;;;;;7.49;100.00;98780.09;5074334;28;20212;-65
2021/10/26 06:30:14;;;;;;;18.97;13.37;;;;;;;7.61;100.00;98789.19;5074608;28;20210;-65
2021/10/26 06:32:41;;;;;;;17.20;13.10;;;;;;;7.66;100.00;98787.19;5074959;28;20580;-65
2021/10/26 06:35:09;;;;;;;16.63;12.83;;;;;;;7.75;100.00;98797.28;5074524;28;20225;-65
2021/10/26 06:37:36;;;;;;;18.43;13.67;;;;;;;7.82;100.00;98803.94;5072638;28;20241;-65
2021/10/26 06:40:04;;;;;;;19.90;14.47;;;;;;;7.87;100.00;98802.81;5073999;28;20220;-65
2021/10/26 06:42:33;;;;;;;21.03;13.97;;;;;;;7.90;100.00;98818.44;5074225;28;20209;-65
2021/10/26 06:44:59;;;;;;;19.47;12.80;;;;;;;7.96;100.00;98814.69;5073848;28;20256;-65
2021/10/26 06:47:27;;;;;;;17.70;13.67;;;;;;;8.01;100.00;98823.19;5073815;28;20218;-65
2021/10/26 06:49:53;;;;;;;16.70;12.53;;;;;;;8.05;100.00;98822.13;5074109;28;20218;-65
2021/10/26 06:52:20;;;;;;;18.73;14.00;;;;;;;8.06;100.00;98829.09;5073826;28;20207;-65
2021/10/26 06:54:47;;;;;;;18.33;13.23;;;;;;;8.09;100.00;98834.22;5073761;28;20213;-64
2021/10/26 06:57:14;;;;;;;18.90;13.10;;;;;;;8.15;100.00;98836.56;5073225;28;20265;-64
2021/10/26 06:59:41;;;;;;;15.17;12.23;;;;;;;8.23;100.00;98837.06;5073633;28;20208;-64
2021/10/26 07:02:07;;;;;;;16.07;12.60;;;;;;;8.32;100.00;98834.00;5069585;28;20217;-64
2021/10/26 07:04:36;;;;;;;18.10;13.97;;;;;;;8.38;100.00;98838.97;5073363;28;20216;-64
2021/10/26 07:07:03;;;;;;;18.13;13.20;;;;;;;8.45;100.00;98835.09;5073855;28;20225;-64
2021/10/26 07:09:30;;;;;;;17.97;13.33;;;;;;;8.61;100.00;98831.63;5074103;28;20219;-64
2021/10/26 07:11:57;;;;;;;17.13;13.17;;;;;;;8.73;100.00;98835.41;5069883;28;20206;-64
2021/10/26 07:14:23;;;;;;;19.33;13.53;;;;;;;8.83;100.00;98840.16;5072951;28;20219;-65
2021/10/26 07:16:50;;;;;;;15.33;12.10;;;;;;;8.92;100.00;98842.31;5072800;28;20589;-64
2021/10/26 07:19:16;;;;;;;16.50;12.57;;;;;;;8.98;100.00;98843.75;5073108;28;20213;-65
2021/10/26 07:21:44;;;;;;;17.97;12.70;;;;;;;9.00;100.00;98849.81;5072860;28;20221;-65
2021/10/26 07:24:12;;;;;;;16.03;12.50;;;;;;;9.02;100.00;98855.88;5072760;28;20218;-65
2021/10/26 07:26:39;;;;;;;16.13;12.20;;;;;;;9.06;100.00;98857.41;5073074;28;20222;-64
2021/10/26 07:29:05;;;;;;;17.13;11.60;;;;;;;9.06;100.00;98860.06;5071307;28;20242;-64
2021/10/26 07:31:32;;;;;;;15.47;12.20;;;;;;;9.03;100.00;98854.94;5073079;28;20214;-64
2021/10/26 07:34:00;;;;;;;18.00;12.40;;;;;;;9.01;100.00;98854.16;5070245;28;20216;-65
2021/10/26 07:36:30;;;;;;;15.47;13.00;;;;;;;8.96;100.00;98861.44;5072630;28;20221;-64
2021/10/26 07:39:00;;;;;;;17.30;12.50;;;;;;;8.88;100.00;98858.34;5072745;28;20280;-65
2021/10/26 07:41:27;;;;;;;17.40;11.87;;;;;;;8.92;100.00;98859.88;5069673;28;20211;-65
2021/10/26 07:43:54;;;;;;;15.80;12.60;;;;;;;9.00;100.00;98868.28;5072534;28;20226;-64
2021/10/26 07:46:21;;;;;;;17.70;13.03;;;;;;;9.20;100.00;98865.47;5072930;28;20587;-64
2021/10/26 07:48:48;;;;;;;16.00;13.00;;;;;;;9.42;100.00;98872.16;5073014;28;20219;-65
2021/10/26 07:51:15;;;;;;;17.30;12.00;;;;;;;9.62;100.00;98874.56;5072831;28;20231;-64
2021/10/26 07:53:41;;;;;;;23.43;12.27;;;;;;;9.74;100.00;98875.72;5072418;28;20212;-65
2021/10/26 07:56:10;;;;;;;15.00;11.73;;;;;;;9.90;100.00;98876.63;5071013;28;20212;-64
2021/10/26 07:58:39;;;;;;;15.60;12.03;;;;;;;10.03;100.00;98880.28;5072527;28;20240;-65
2021/10/26 08:01:06;;;;;;;15.47;11.77;;;;;;;10.12;100.00;98882.44;5072624;28;20299;-67
2021/10/26 08:03:33;;;;;;;14.80;11.47;;;;;;;10.24;100.00;98885.25;5072751;28;20211;-65
2021/10/26 08:06:00;;;;;;;13.50;10.57;;;;;;;10.32;100.00;98876.88;5072666;28;20662;-64
2021/10/26 08:08:27;;;;;;;13.90;11.17;;;;;;;10.37;100.00;98874.81;5072377;28;20237;-64
2021/10/26 08:10:54;;;;;;;13.93;11.53;;;;;;;10.38;100.00;98873.88;5072204;28;20224;-65
2021/10/26 08:13:22;;;;;;;14.73;11.63;;;;;;;10.47;100.00;98876.03;5072362;28;20266;-65
2021/10/26 08:15:50;;;;;;;15.30;11.77;;;;;;;10.63;100.00;98876.81;5071968;28;20247;-65
2021/10/26 08:18:17;;;;;;;16.13;11.80;;;;;;;10.76;100.00;98888.44;5072351;28;20239;-65
2021/10/26 08:20:43;;;;;;;18.40;12.57;;;;;;;10.75;100.00;98879.63;5072011;28;20217;-65
2021/10/26 08:23:10;;;;;;;18.47;11.90;;;;;;;10.65;100.00;98881.09;5070803;28;20215;-64
2021/10/26 08:25:39;;;;;;;13.03;11.30;;;;;;;10.50;100.00;98881.97;5064517;28;20234;-65
2021/10/26 08:28:10;;;;;;;16.50;10.87;;;;;;;10.32;100.00;98890.09;5064834;28;20248;-65
2021/10/26 08:30:42;;;;;;;13.37;11.20;;;;;;;10.15;100.00;98885.75;5065673;28;20307;-64
2021/10/26 08:33:24;;;;;;;14.03;11.40;;;;;;;10.07;100.00;98879.19;5068228;28;20219;-65
2021/10/26 08:35:50;;;;;;;17.17;12.57;;;;;;;10.01;100.00;98875.06;5049706;28;20294;-65
2021/10/26 08:38:18;;;;;;;17.70;12.23;;;;;;;9.97;100.00;98865.59;5067183;28;20240;-64
2021/10/26 08:40:48;;;;;;;14.53;11.40;;;;;;;9.97;100.00;98868.25;5067167;28;20737;-65
2021/10/26 08:43:16;;;;;;;14.13;11.97;;;;;;;9.97;100.00;98870.88;5067930;28;20258;-64
2021/10/26 08:45:48;;;;;;;15.73;12.67;;;;;;;10.02;100.00;98868.84;5068218;28;20213;-64
2021/10/26 08:48:20;;;;;;;14.73;11.77;;;;;;;10.22;100.00;98881.00;5066631;28;20580;-65
2021/10/26 08:50:47;;;;;;;15.47;12.13;;;;;;;10.45;100.00;98872.63;5067283;28;20584;-64
2021/10/26 08:53:14;;;;;;;14.93;11.77;;;;;;;10.70;100.00;98867.63;5068299;28;20214;-64
2021/10/26 08:55:40;;;;;;;13.80;11.27;;;;;;;10.96;100.00;98870.41;5066737;28;20224;-65
2021/10/26 08:58:07;;;;;;;14.07;12.13;;;;;;;11.17;100.00;98868.31;5069533;28;20241;-64
2021/10/26 09:00:34;;;;;;;14.80;11.60;;;;;;;11.31;100.00;98866.53;5069277;28;20582;-65
2021/10/26 09:03:16;;;;;;;14.67;11.23;;;;;;;11.49;100.00;98869.88;5068217;28;20220;-65
2021/10/26 09:05:45;;;;;;;13.80;10.83;;;;;;;11.64;100.00;98866.31;5068823;28;20302;-64
2021/10/26 09:08:12;;;;;;;13.30;10.90;;;;;;;11.74;100.00;98868.28;5068808;28;20690;-65
2021/10/26 09:10:42;;;;;;;13.37;10.73;;;;;;;11.85;100.00;98870.25;5067250;28;20217;-66
2021/10/26 09:18:44;;;;;;;11.57;9.70;;;;;;;12.44;100.00;98867.28;5065442;28;20606;-65
2021/10/26 09:21:27;;;;;;;10.53;9.43;;;;;;;12.62;100.00;98868.75;5072000;28;20219;-64
2021/10/26 09:23:56;;;;;;;11.17;8.70;;;;;;;12.66;100.00;98867.59;5064410;28;20218;-65
2021/10/26 09:26:23;;;;;;;12.17;8.90;;;;;;;12.60;100.00;98863.53;5070372;28;20269;-65
2021/10/26 09:28:53;;;;;;;12.43;9.17;;;;;;;12.58;100.00;98859.28;5073469;28;20302;-65
2021/10/26 09:31:28;;;;;;;12.33;9.40;;;;;;;12.66;100.00;98857.00;5073874;28;20225;-65
2021/10/26 09:34:03;;;;;;;11.17;9.30;;;;;;;12.77;100.00;98857.97;5075023;28;20207;-65
2021/10/26 09:36:31;;;;;;;11.10;8.73;;;;;;;12.95;100.00;98861.22;5074938;28;20214;-65
2021/10/26 09:39:23;;;;;;;11.67;8.83;;;;;;;13.13;100.00;98866.16;5074960;28;20276;-65
2021/10/26 09:42:03;;;;;;;11.60;9.47;;;;;;;13.36;100.00;98865.44;5065810;28;20724;-65
2021/10/26 09:44:33;;;;;;;10.03;8.23;;;;;;;13.58;100.00;98870.13;5074265;28;20220;-65
2021/10/26 09:47:03;;;;;;;10.17;8.50;;;;;;;13.71;100.00;98869.16;5074362;28;20219;-65
2021/10/26 09:49:34;;;;;;;9.83;8.00;;;;;;;13.80;100.00;98865.84;5070295;28;20578;-65
2021/10/26 09:52:09;;;;;;;10.50;8.90;;;;;;;13.91;100.00;98870.41;5068385;28;20215;-65
2021/10/26 09:54:37;;;;;;;11.53;9.13;;;;;;;14.00;100.00;98883.03;5074779;28;20223;-66
2021/10/26 09:57:06;;;;;;;11.63;9.13;;;;;;;14.04;100.00;98880.06;5070601;28;20219;-65
2021/10/26 09:59:34;;;;;;;10.70;8.90;;;;;;;14.16;100.00;98883.63;5074048;28;20235;-65
2021/10/26 10:02:01;;;;;;;12.13;8.50;;;;;;;14.30;100.00;98887.03;5074359;28;20220;-65
2021/10/26 10:04:29;;;;;;;11.53;9.13;;;;;;;14.43;99.08;98887.84;5074326;28;20273;-65
2021/10/26 10:06:57;;;;;;;10.67;8.73;;;;;;;14.54;99.03;98879.09;5074389;28;20649;-65
2021/10/26 10:09:24;;;;;;;11.27;8.70;;;;;;;14.56;97.91;98883.34;5074536;28;20224;-65
2021/10/26 10:11:59;;;;;;;10.03;8.60;;;;;;;14.50;97.75;98877.63;5072812;28;20218;-65
2021/10/26 10:14:25;;;;;;;9.53;8.10;;;;;;;14.46;97.73;98876.13;5071286;28;20212;-65
2021/10/26 10:16:53;;;;;;;10.33;7.80;;;;;;;14.49;98.28;98886.56;5074397;28;20220;-65
2021/10/26 10:19:21;;;;;;;9.90;8.30;;;;;;;14.67;97.51;98887.88;5074349;28;20244;-65
2021/10/26 10:21:50;;;;;;;11.57;9.90;;;;;;;14.94;93.74;98886.69;5074161;28;20210;-65
2021/10/26 10:24:20;;;;;;;10.17;8.40;;;;;;;15.26;91.47;98878.91;5071723;28;20244;-65
2021/10/26 10:26:50;;;;;;;9.87;7.97;;;;;;;15.50;90.00;98887.72;5074154;28;20596;-65
2021/10/26 10:29:19;;;;;;;10.07;8.60;;;;;;;15.57;90.19;98879.13;5073822;28;20217;-65
2021/10/26 10:31:47;;;;;;;9.63;7.60;;;;;;;15.52;89.46;98883.13;5072555;28;20217;-65
2021/10/26 10:34:14;;;;;;;10.50;7.53;;;;;;;15.49;89.47;98875.38;5073870;28;20218;-65
2021/10/26 10:36:41;;;;;;;8.13;6.00;;;;;;;15.69;88.67;98877.31;5074065;28;20214;-65
2021/10/26 10:39:10;;;;;;;7.83;6.30;;;;;;;15.71;88.61;98875.41;5071992;28;20239;-66
2021/10/26 10:41:41;;;;;;;7.47;5.43;;;;;;;15.51;89.96;98873.44;5073973;28;20218;-65
2021/10/26 10:44:38;;;;;;;7.50;4.80;;;;;;;15.29;88.80;98870.69;5073677;28;20222;-65
2021/10/26 10:47:05;;;;;;;6.07;5.43;;;;;;;15.32;88.73;98873.09;5073734;28;20213;-65
2021/10/26 10:49:52;;;;;;;6.40;5.00;;;;;;;15.36;89.61;98869.28;5073462;28;20214;-65
2021/10/26 10:52:29;;;;;;;7.77;5.47;;;;;;;15.47;89.75;98866.66;5061884;28;20244;-65
2021/10/26 10:54:56;;;;;;;5.17;4.20;;;;;;;15.61;87.69;98863.75;5073212;28;20249;-66
2021/10/26 10:57:30;;;;;;;4.00;3.27;;;;;;;15.77;86.60;98872.25;5073175;28;20680;-65
2021/10/26 10:59:59;;;;;;;3.13;2.40;;;;;;;15.80;79.65;98864.88;5073313;28;20244;-66
2021/10/26 11:02:27;;;;;;;4.10;2.30;;;;;;;15.83;79.02;98859.28;5073454;28;20220;-65
2021/10/26 11:04:55;;;;;;;4.83;2.43;;;;;;;15.84;77.82;98862.81;5063452;28;20218;-66
2021/10/26 11:07:54;;;;;;;3.87;3.10;;;;;;;15.51;79.76;98865.47;5072229;28;20242;-65
2021/10/26 11:10:21;;;;;;;3.57;2.50;;;;;;;15.57;81.02;98863.16;5063799;28;20691;-65
2021/10/26 11:12:51;;;;;;;4.30;2.60;;;;;;;15.72;80.45;98861.97;5073336;28;20628;-66
2021/10/26 11:15:24;;;;;;;5.53;2.90;;;;;;;15.75;79.58;98863.50;5072930;28;20253;-66
2021/10/26 11:17:52;;;;;;;3.67;2.40;;;;;;;15.77;78.86;98862.44;5060690;28;20232;-66
2021/10/26 11:20:43;;;;;;;3.33;2.30;;;;;;;15.90;79.70;98859.66;5072993;28;20246;-66
2021/10/26 11:23:14;;;;;;;3.17;2.43;;;;;;;15.98;78.61;98867.88;5067021;28;20219;-65
2021/10/26 11:25:42;;;;;;;4.13;2.60;;;;;;;15.98;78.40;98859.88;5060524;28;20242;-65
2021/10/26 11:28:48;;;;;;;3.60;2.47;;;;;;;16.04;78.95;98862.94;5072745;28;20221;-65
2021/10/26 11:31:23;;;;;;;3.27;2.40;;;;;;;16.10;79.61;98863.28;5068013;28;20219;-65